sensor_id;sensor_type;location;lat;lon;timestamp;temperature;humidity
36458;DHT22;22480;50.546;12.292;2023-08-12T00:00:51;15.80;99.90
36458;DHT22;22480;50.546;12.292;2023-08-12T00:03:17;15.80;99.90
36458;DHT22;22480;50.546;12.292;2023-08-12T00:05:42;15.90;99.90
36458;DHT22;22480;50.546;12.292;2023-08-12T00:08:09;15.90;99.90
36458;DHT22;22480;50.546;12.292;2023-08-12T00:10:34;16.10;99.90
36458;DHT22;22480;50.546;12.292;2023-08-12T00:13:00;16.10;99.90
36458;DHT22;22480;50.546;12.292;2023-08-12T00:15:26;16.10;99.90
36458;DHT22;22480;50.546;12.292;2023-08-12T00:17:52;16.20;99.90
36458;DHT22;22480;50.546;12.292;2023-08-12T00:20:18;16.30;99.90
36458;DHT22;22480;50.546;12.292;2023-08-12T00:22:44;16.50;99.90
36458;DHT22;22480;50.546;12.292;2023-08-12T00:25:10;16.70;99.90
36458;DHT22;22480;50.546;12.292;2023-08-12T00:27:36;16.90;99.90
36458;DHT22;22480;50.546;12.292;2023-08-12T00:30:04;17.00;99.90
36458;DHT22;22480;50.546;12.292;2023-08-12T00:32:30;17.00;99.90
36458;DHT22;22480;50.546;12.292;2023-08-12T00:34:56;16.90;99.90
36458;DHT22;22480;50.546;12.292;2023-08-12T00:37:22;16.80;99.90
36458;DHT22;22480;50.546;12.292;2023-08-12T00:39:48;16.70;99.90
36458;DHT22;22480;50.546;12.292;2023-08-12T00:42:14;16.60;99.90
36458;DHT22;22480;50.546;12.292;2023-08-12T00:44:39;16.70;99.90
36458;DHT22;22480;50.546;12.292;2023-08-12T00:47:05;16.80;99.90
36458;DHT22;22480;50.546;12.292;2023-08-12T00:49:32;16.70;99.90
36458;DHT22;22480;50.546;12.292;2023-08-12T00:51:58;16.80;99.90
36458;DHT22;22480;50.546;12.292;2023-08-12T00:54:26;16.90;99.90
36458;DHT22;22480;50.546;12.292;2023-08-12T00:56:53;17.00;99.90
36458;DHT22;22480;50.546;12.292;2023-08-12T00:59:20;17.00;99.90
36458;DHT22;22480;50.546;12.292;2023-08-12T01:01:47;16.90;99.90
36458;DHT22;22480;50.546;12.292;2023-08-12T01:04:13;16.80;99.90
36458;DHT22;22480;50.546;12.292;2023-08-12T01:06:39;16.70;99.90
36458;DHT22;22480;50.546;12.292;2023-08-12T01:09:05;16.60;99.90
36458;DHT22;22480;50.546;12.292;2023-08-12T01:12:00;16.60;99.90
36458;DHT22;22480;50.546;12.292;2023-08-12T01:17:09;16.80;99.90
36458;DHT22;22480;50.546;12.292;2023-08-12T01:19:38;16.80;99.90
36458;DHT22;22480;50.546;12.292;2023-08-12T01:22:08;16.80;99.90
36458;DHT22;22480;50.546;12.292;2023-08-12T01:24:35;16.70;99.90
36458;DHT22;22480;50.546;12.292;2023-08-12T01:27:03;16.60;99.90
36458;DHT22;22480;50.546;12.292;2023-08-12T01:29:30;16.50;99.90
36458;DHT22;22480;50.546;12.292;2023-08-12T01:34:43;16.50;99.90
36458;DHT22;22480;50.546;12.292;2023-08-12T01:37:23;16.40;99.90
36458;DHT22;22480;50.546;12.292;2023-08-12T01:39:50;16.50;99.90
36458;DHT22;22480;50.546;12.292;2023-08-12T01:42:18;16.50;99.90
36458;DHT22;22480;50.546;12.292;2023-08-12T01:44:45;16.40;99.90
36458;DHT22;22480;50.546;12.292;2023-08-12T01:47:11;16.30;99.90
36458;DHT22;22480;50.546;12.292;2023-08-12T01:49:37;16.30;99.90
36458;DHT22;22480;50.546;12.292;2023-08-12T01:52:03;16.20;99.90
36458;DHT22;22480;50.546;12.292;2023-08-12T01:54:29;16.30;99.90
36458;DHT22;22480;50.546;12.292;2023-08-12T01:57:05;16.40;99.90
36458;DHT22;22480;50.546;12.292;2023-08-12T01:59:35;16.40;99.90
36458;DHT22;22480;50.546;12.292;2023-08-12T02:02:01;16.50;99.90
36458;DHT22;22480;50.546;12.292;2023-08-12T02:04:27;16.50;99.90
36458;DHT22;22480;50.546;12.292;2023-08-12T02:06:53;16.50;99.90
36458;DHT22;22480;50.546;12.292;2023-08-12T02:09:19;16.50;99.90
36458;DHT22;22480;50.546;12.292;2023-08-12T02:11:45;16.40;99.90
36458;DHT22;22480;50.546;12.292;2023-08-12T02:14:11;16.40;99.90
36458;DHT22;22480;50.546;12.292;2023-08-12T02:16:37;16.40;99.90
36458;DHT22;22480;50.546;12.292;2023-08-12T02:19:03;16.40;99.90
36458;DHT22;22480;50.546;12.292;2023-08-12T02:21:28;16.30;99.90
36458;DHT22;22480;50.546;12.292;2023-08-12T02:23:54;16.40;99.90
36458;DHT22;22480;50.546;12.292;2023-08-12T02:26:20;16.40;99.90
36458;DHT22;22480;50.546;12.292;2023-08-12T02:28:47;16.50;99.90
36458;DHT22;22480;50.546;12.292;2023-08-12T02:31:15;16.50;99.90
36458;DHT22;22480;50.546;12.292;2023-08-12T02:33:42;16.60;99.90
36458;DHT22;22480;50.546;12.292;2023-08-12T02:36:07;16.50;99.90
36458;DHT22;22480;50.546;12.292;2023-08-12T02:38:33;16.60;99.90
36458;DHT22;22480;50.546;12.292;2023-08-12T02:40:59;16.60;99.90
36458;DHT22;22480;50.546;12.292;2023-08-12T02:43:24;16.50;99.90
36458;DHT22;22480;50.546;12.292;2023-08-12T02:45:50;16.40;99.90
36458;DHT22;22480;50.546;12.292;2023-08-12T02:48:16;16.40;99.90
36458;DHT22;22480;50.546;12.292;2023-08-12T02:50:42;16.30;99.90
36458;DHT22;22480;50.546;12.292;2023-08-12T02:53:08;16.30;99.90
36458;DHT22;22480;50.546;12.292;2023-08-12T02:55:33;16.30;99.90
36458;DHT22;22480;50.546;12.292;2023-08-12T02:58:03;16.40;99.90
36458;DHT22;22480;50.546;12.292;2023-08-12T03:00:29;16.60;99.90
36458;DHT22;22480;50.546;12.292;2023-08-12T03:02:55;16.70;99.90
36458;DHT22;22480;50.546;12.292;2023-08-12T03:05:22;16.70;99.90
36458;DHT22;22480;50.546;12.292;2023-08-12T03:07:49;16.70;99.90
36458;DHT22;22480;50.546;12.292;2023-08-12T03:10:15;16.80;99.90
36458;DHT22;22480;50.546;12.292;2023-08-12T03:12:41;16.70;99.90
36458;DHT22;22480;50.546;12.292;2023-08-12T03:15:07;16.70;99.90
36458;DHT22;22480;50.546;12.292;2023-08-12T03:17:33;16.60;99.90
36458;DHT22;22480;50.546;12.292;2023-08-12T03:20:00;16.40;99.90
36458;DHT22;22480;50.546;12.292;2023-08-12T03:22:28;16.30;99.90
36458;DHT22;22480;50.546;12.292;2023-08-12T03:24:54;16.40;99.90
36458;DHT22;22480;50.546;12.292;2023-08-12T03:27:19;16.50;99.90
36458;DHT22;22480;50.546;12.292;2023-08-12T03:29:46;16.50;99.90
36458;DHT22;22480;50.546;12.292;2023-08-12T03:32:12;16.40;99.90
36458;DHT22;22480;50.546;12.292;2023-08-12T03:34:38;16.40;99.90
36458;DHT22;22480;50.546;12.292;2023-08-12T03:37:05;16.40;99.90
36458;DHT22;22480;50.546;12.292;2023-08-12T03:39:32;16.40;99.90
36458;DHT22;22480;50.546;12.292;2023-08-12T03:41:59;16.40;99.90
36458;DHT22;22480;50.546;12.292;2023-08-12T03:44:25;16.30;99.90
36458;DHT22;22480;50.546;12.292;2023-08-12T03:46:52;16.20;99.90
36458;DHT22;22480;50.546;12.292;2023-08-12T03:49:17;16.20;99.90
36458;DHT22;22480;50.546;12.292;2023-08-12T03:51:43;16.10;99.90
36458;DHT22;22480;50.546;12.292;2023-08-12T03:54:09;16.10;99.90
36458;DHT22;22480;50.546;12.292;2023-08-12T03:56:35;16.10;99.90
36458;DHT22;22480;50.546;12.292;2023-08-12T03:59:02;16.10;99.90
36458;DHT22;22480;50.546;12.292;2023-08-12T04:01:28;16.10;99.90
36458;DHT22;22480;50.546;12.292;2023-08-12T04:03:55;16.10;99.90
36458;DHT22;22480;50.546;12.292;2023-08-12T04:06:21;16.20;99.90
36458;DHT22;22480;50.546;12.292;2023-08-12T04:08:47;16.10;99.90
36458;DHT22;22480;50.546;12.292;2023-08-12T04:11:13;16.10;99.90
36458;DHT22;22480;50.546;12.292;2023-08-12T04:13:40;16.10;99.90
36458;DHT22;22480;50.546;12.292;2023-08-12T04:16:05;16.30;99.90
36458;DHT22;22480;50.546;12.292;2023-08-12T04:18:31;16.50;99.90
36458;DHT22;22480;50.546;12.292;2023-08-12T04:20:58;16.60;99.90
36458;DHT22;22480;50.546;12.292;2023-08-12T04:23:24;16.80;99.90
36458;DHT22;22480;50.546;12.292;2023-08-12T04:25:52;16.90;99.90
36458;DHT22;22480;50.546;12.292;2023-08-12T04:28:20;17.00;99.90
36458;DHT22;22480;50.546;12.292;2023-08-12T04:30:48;17.00;99.90
36458;DHT22;22480;50.546;12.292;2023-08-12T04:33:16;17.00;99.90
36458;DHT22;22480;50.546;12.292;2023-08-12T04:35:42;17.00;99.90
36458;DHT22;22480;50.546;12.292;2023-08-12T04:38:09;16.90;99.90
36458;DHT22;22480;50.546;12.292;2023-08-12T04:40:40;16.90;99.90
36458;DHT22;22480;50.546;12.292;2023-08-12T04:43:10;16.90;99.90
36458;DHT22;22480;50.546;12.292;2023-08-12T04:45:37;16.90;99.90
36458;DHT22;22480;50.546;12.292;2023-08-12T04:48:04;17.00;99.90
36458;DHT22;22480;50.546;12.292;2023-08-12T04:50:32;17.00;99.90
36458;DHT22;22480;50.546;12.292;2023-08-12T04:53:00;17.00;99.90
36458;DHT22;22480;50.546;12.292;2023-08-12T04:55:27;16.90;99.90
36458;DHT22;22480;50.546;12.292;2023-08-12T04:57:54;17.00;99.90
36458;DHT22;22480;50.546;12.292;2023-08-12T05:00:20;17.00;99.90
36458;DHT22;22480;50.546;12.292;2023-08-12T05:02:46;17.10;99.90
36458;DHT22;22480;50.546;12.292;2023-08-12T05:05:12;17.20;99.90
36458;DHT22;22480;50.546;12.292;2023-08-12T05:07:38;17.30;99.90
36458;DHT22;22480;50.546;12.292;2023-08-12T05:10:04;17.60;99.90
36458;DHT22;22480;50.546;12.292;2023-08-12T05:12:31;17.80;99.90
36458;DHT22;22480;50.546;12.292;2023-08-12T05:14:57;18.10;99.90
36458;DHT22;22480;50.546;12.292;2023-08-12T05:17:23;18.20;99.90
36458;DHT22;22480;50.546;12.292;2023-08-12T05:19:49;18.40;99.90
36458;DHT22;22480;50.546;12.292;2023-08-12T05:22:15;18.60;99.90
36458;DHT22;22480;50.546;12.292;2023-08-12T05:24:41;19.00;99.90
36458;DHT22;22480;50.546;12.292;2023-08-12T05:27:07;19.70;99.90
36458;DHT22;22480;50.546;12.292;2023-08-12T05:29:33;20.90;99.90
36458;DHT22;22480;50.546;12.292;2023-08-12T05:31:58;22.30;99.90
36458;DHT22;22480;50.546;12.292;2023-08-12T05:34:24;23.10;99.90
36458;DHT22;22480;50.546;12.292;2023-08-12T05:36:50;23.80;99.90
36458;DHT22;22480;50.546;12.292;2023-08-12T05:39:16;24.70;98.90
36458;DHT22;22480;50.546;12.292;2023-08-12T05:41:41;25.60;95.60
36458;DHT22;22480;50.546;12.292;2023-08-12T05:44:07;26.50;80.90
36458;DHT22;22480;50.546;12.292;2023-08-12T05:46:33;27.20;77.90
36458;DHT22;22480;50.546;12.292;2023-08-12T05:48:59;27.50;73.90
36458;DHT22;22480;50.546;12.292;2023-08-12T05:51:24;27.70;71.90
36458;DHT22;22480;50.546;12.292;2023-08-12T05:53:51;27.10;71.30
36458;DHT22;22480;50.546;12.292;2023-08-12T05:56:17;26.40;73.80
36458;DHT22;22480;50.546;12.292;2023-08-12T05:58:42;25.20;77.60
36458;DHT22;22480;50.546;12.292;2023-08-12T06:01:08;24.40;90.70
36458;DHT22;22480;50.546;12.292;2023-08-12T06:03:34;23.90;94.80
36458;DHT22;22480;50.546;12.292;2023-08-12T06:06:00;23.50;99.30
36458;DHT22;22480;50.546;12.292;2023-08-12T06:08:25;23.00;99.90
36458;DHT22;22480;50.546;12.292;2023-08-12T06:10:51;22.90;99.90
36458;DHT22;22480;50.546;12.292;2023-08-12T06:13:17;23.10;99.90
36458;DHT22;22480;50.546;12.292;2023-08-12T06:15:42;24.30;98.10
36458;DHT22;22480;50.546;12.292;2023-08-12T06:18:08;25.50;87.40
36458;DHT22;22480;50.546;12.292;2023-08-12T06:20:34;26.30;78.70
36458;DHT22;22480;50.546;12.292;2023-08-12T06:23:00;27.00;74.70
36458;DHT22;22480;50.546;12.292;2023-08-12T06:25:26;27.70;71.50
36458;DHT22;22480;50.546;12.292;2023-08-12T06:27:51;28.00;67.70
36458;DHT22;22480;50.546;12.292;2023-08-12T06:30:17;27.70;67.80
36458;DHT22;22480;50.546;12.292;2023-08-12T06:32:43;27.30;68.20
36458;DHT22;22480;50.546;12.292;2023-08-12T06:35:08;26.60;69.10
36458;DHT22;22480;50.546;12.292;2023-08-12T06:37:34;26.00;71.50
36458;DHT22;22480;50.546;12.292;2023-08-12T06:40:00;25.50;73.50
36458;DHT22;22480;50.546;12.292;2023-08-12T06:42:26;25.60;75.20
36458;DHT22;22480;50.546;12.292;2023-08-12T06:44:56;25.80;72.20
36458;DHT22;22480;50.546;12.292;2023-08-12T06:47:22;26.20;72.70
36458;DHT22;22480;50.546;12.292;2023-08-12T06:49:48;27.00;70.80
36458;DHT22;22480;50.546;12.292;2023-08-12T06:52:14;27.70;67.50
36458;DHT22;22480;50.546;12.292;2023-08-12T06:54:40;28.30;65.70
36458;DHT22;22480;50.546;12.292;2023-08-12T06:57:05;28.60;65.00
36458;DHT22;22480;50.546;12.292;2023-08-12T06:59:31;29.00;64.20
36458;DHT22;22480;50.546;12.292;2023-08-12T07:01:57;29.30;64.20
36458;DHT22;22480;50.546;12.292;2023-08-12T07:04:22;29.80;62.30
36458;DHT22;22480;50.546;12.292;2023-08-12T07:06:48;29.80;62.60
36458;DHT22;22480;50.546;12.292;2023-08-12T07:09:14;29.60;60.60
36458;DHT22;22480;50.546;12.292;2023-08-12T07:11:40;29.80;61.70
36458;DHT22;22480;50.546;12.292;2023-08-12T07:14:06;30.50;60.60
36458;DHT22;22480;50.546;12.292;2023-08-12T07:16:31;30.60;59.60
36458;DHT22;22480;50.546;12.292;2023-08-12T07:18:57;30.20;60.20
36458;DHT22;22480;50.546;12.292;2023-08-12T07:21:23;30.40;59.70
36458;DHT22;22480;50.546;12.292;2023-08-12T07:23:49;29.60;58.70
36458;DHT22;22480;50.546;12.292;2023-08-12T07:26:14;28.70;61.40
36458;DHT22;22480;50.546;12.292;2023-08-12T07:28:40;28.00;62.10
36458;DHT22;22480;50.546;12.292;2023-08-12T07:31:06;27.90;64.30
36458;DHT22;22480;50.546;12.292;2023-08-12T07:33:32;27.80;65.10
36458;DHT22;22480;50.546;12.292;2023-08-12T07:35:57;27.60;64.60
36458;DHT22;22480;50.546;12.292;2023-08-12T07:38:23;27.60;65.50
36458;DHT22;22480;50.546;12.292;2023-08-12T07:40:49;28.20;65.70
36458;DHT22;22480;50.546;12.292;2023-08-12T07:43:15;28.40;63.30
36458;DHT22;22480;50.546;12.292;2023-08-12T07:45:41;28.00;64.30
36458;DHT22;22480;50.546;12.292;2023-08-12T07:48:06;27.70;64.10
36458;DHT22;22480;50.546;12.292;2023-08-12T07:50:32;27.70;65.50
36458;DHT22;22480;50.546;12.292;2023-08-12T07:52:58;27.90;64.60
36458;DHT22;22480;50.546;12.292;2023-08-12T07:55:24;27.80;63.80
36458;DHT22;22480;50.546;12.292;2023-08-12T07:57:49;28.10;63.50
36458;DHT22;22480;50.546;12.292;2023-08-12T08:00:15;28.10;64.20
36458;DHT22;22480;50.546;12.292;2023-08-12T08:02:41;28.30;62.80
36458;DHT22;22480;50.546;12.292;2023-08-12T08:05:07;28.50;63.10
36458;DHT22;22480;50.546;12.292;2023-08-12T08:07:33;28.60;62.60
36458;DHT22;22480;50.546;12.292;2023-08-12T08:09:58;28.10;63.30
36458;DHT22;22480;50.546;12.292;2023-08-12T08:12:24;27.70;64.50
36458;DHT22;22480;50.546;12.292;2023-08-12T08:14:50;27.30;64.00
36458;DHT22;22480;50.546;12.292;2023-08-12T08:17:16;27.40;64.50
36458;DHT22;22480;50.546;12.292;2023-08-12T08:19:41;27.60;65.00
36458;DHT22;22480;50.546;12.292;2023-08-12T08:22:07;27.80;65.70
36458;DHT22;22480;50.546;12.292;2023-08-12T08:24:33;28.00;65.40
36458;DHT22;22480;50.546;12.292;2023-08-12T08:26:58;28.40;64.40
36458;DHT22;22480;50.546;12.292;2023-08-12T08:29:24;28.30;62.80
36458;DHT22;22480;50.546;12.292;2023-08-12T08:31:50;28.90;64.90
36458;DHT22;22480;50.546;12.292;2023-08-12T08:34:16;29.30;62.20
36458;DHT22;22480;50.546;12.292;2023-08-12T08:36:41;29.40;61.30
36458;DHT22;22480;50.546;12.292;2023-08-12T08:39:08;29.90;59.70
36458;DHT22;22480;50.546;12.292;2023-08-12T08:41:38;30.50;60.80
36458;DHT22;22480;50.546;12.292;2023-08-12T08:44:07;30.70;59.40
36458;DHT22;22480;50.546;12.292;2023-08-12T08:46:32;30.40;58.90
36458;DHT22;22480;50.546;12.292;2023-08-12T08:48:59;29.90;59.50
36458;DHT22;22480;50.546;12.292;2023-08-12T08:51:29;29.80;62.20
36458;DHT22;22480;50.546;12.292;2023-08-12T08:53:56;29.30;61.10
36458;DHT22;22480;50.546;12.292;2023-08-12T08:56:22;28.60;61.30
36458;DHT22;22480;50.546;12.292;2023-08-12T08:58:48;27.60;62.30
36458;DHT22;22480;50.546;12.292;2023-08-12T09:01:17;27.10;64.10
36458;DHT22;22480;50.546;12.292;2023-08-12T09:03:43;26.70;65.70
36458;DHT22;22480;50.546;12.292;2023-08-12T09:06:09;26.70;65.80
36458;DHT22;22480;50.546;12.292;2023-08-12T09:08:36;26.70;66.00
36458;DHT22;22480;50.546;12.292;2023-08-12T09:11:03;26.40;66.00
36458;DHT22;22480;50.546;12.292;2023-08-12T09:13:30;26.00;67.20
36458;DHT22;22480;50.546;12.292;2023-08-12T09:15:56;26.10;67.60
36458;DHT22;22480;50.546;12.292;2023-08-12T09:18:22;26.30;66.40
36458;DHT22;22480;50.546;12.292;2023-08-12T09:20:52;26.70;68.30
36458;DHT22;22480;50.546;12.292;2023-08-12T09:23:18;27.10;65.80
36458;DHT22;22480;50.546;12.292;2023-08-12T09:25:44;27.30;65.90
36458;DHT22;22480;50.546;12.292;2023-08-12T09:28:10;27.40;66.50
36458;DHT22;22480;50.546;12.292;2023-08-12T09:30:37;27.30;65.00
36458;DHT22;22480;50.546;12.292;2023-08-12T09:33:07;26.90;65.90
36458;DHT22;22480;50.546;12.292;2023-08-12T09:35:37;26.70;65.50
36458;DHT22;22480;50.546;12.292;2023-08-12T09:38:10;26.50;66.50
36458;DHT22;22480;50.546;12.292;2023-08-12T09:40:37;26.40;66.90
36458;DHT22;22480;50.546;12.292;2023-08-12T09:43:03;26.40;66.80
36458;DHT22;22480;50.546;12.292;2023-08-12T09:45:30;26.30;65.90
36458;DHT22;22480;50.546;12.292;2023-08-12T09:47:57;26.30;67.20
36458;DHT22;22480;50.546;12.292;2023-08-12T09:50:24;26.30;66.70
36458;DHT22;22480;50.546;12.292;2023-08-12T09:52:52;26.30;68.50
36458;DHT22;22480;50.546;12.292;2023-08-12T09:55:18;26.90;66.60
36458;DHT22;22480;50.546;12.292;2023-08-12T09:57:48;27.60;65.20
36458;DHT22;22480;50.546;12.292;2023-08-12T10:00:15;28.00;64.40
36458;DHT22;22480;50.546;12.292;2023-08-12T10:02:46;27.90;62.70
36458;DHT22;22480;50.546;12.292;2023-08-12T10:05:15;27.90;63.40
36458;DHT22;22480;50.546;12.292;2023-08-12T10:07:42;28.60;63.90
36458;DHT22;22480;50.546;12.292;2023-08-12T10:10:09;29.00;61.50
36458;DHT22;22480;50.546;12.292;2023-08-12T10:12:36;29.50;60.30
36458;DHT22;22480;50.546;12.292;2023-08-12T10:15:04;29.90;60.30
36458;DHT22;22480;50.546;12.292;2023-08-12T10:17:31;30.30;58.40
36458;DHT22;22480;50.546;12.292;2023-08-12T10:19:57;30.60;57.40
36458;DHT22;22480;50.546;12.292;2023-08-12T10:22:25;30.40;58.80
36458;DHT22;22480;50.546;12.292;2023-08-12T10:24:51;30.60;57.40
36458;DHT22;22480;50.546;12.292;2023-08-12T10:27:19;30.50;57.40
36458;DHT22;22480;50.546;12.292;2023-08-12T10:29:46;30.20;56.00
36458;DHT22;22480;50.546;12.292;2023-08-12T10:32:13;29.50;58.30
36458;DHT22;22480;50.546;12.292;2023-08-12T10:34:39;28.70;58.40
36458;DHT22;22480;50.546;12.292;2023-08-12T10:37:05;28.70;59.80
36458;DHT22;22480;50.546;12.292;2023-08-12T10:39:32;28.70;60.80
36458;DHT22;22480;50.546;12.292;2023-08-12T10:41:58;28.20;59.80
36458;DHT22;22480;50.546;12.292;2023-08-12T10:44:39;28.10;61.00
36458;DHT22;22480;50.546;12.292;2023-08-12T10:47:09;27.90;62.10
36458;DHT22;22480;50.546;12.292;2023-08-12T10:49:43;27.80;62.00
36458;DHT22;22480;50.546;12.292;2023-08-12T10:52:29;28.20;61.60
36458;DHT22;22480;50.546;12.292;2023-08-12T10:54:55;28.50;62.70
36458;DHT22;22480;50.546;12.292;2023-08-12T10:57:40;28.90;64.50
36458;DHT22;22480;50.546;12.292;2023-08-12T11:00:11;29.00;61.90
36458;DHT22;22480;50.546;12.292;2023-08-12T11:02:38;28.90;63.10
36458;DHT22;22480;50.546;12.292;2023-08-12T11:05:09;28.60;61.30
36458;DHT22;22480;50.546;12.292;2023-08-12T11:07:43;28.40;61.40
36458;DHT22;22480;50.546;12.292;2023-08-12T11:12:55;28.30;63.70
36458;DHT22;22480;50.546;12.292;2023-08-12T11:15:43;28.50;62.50
36458;DHT22;22480;50.546;12.292;2023-08-12T11:18:19;28.20;63.30
36458;DHT22;22480;50.546;12.292;2023-08-12T11:20:47;28.30;63.70
36458;DHT22;22480;50.546;12.292;2023-08-12T11:23:13;29.00;64.10
36458;DHT22;22480;50.546;12.292;2023-08-12T11:25:40;30.30;61.30
36458;DHT22;22480;50.546;12.292;2023-08-12T11:28:07;31.50;60.00
36458;DHT22;22480;50.546;12.292;2023-08-12T11:30:33;31.80;57.20
36458;DHT22;22480;50.546;12.292;2023-08-12T11:33:00;32.30;56.80
36458;DHT22;22480;50.546;12.292;2023-08-12T11:35:26;33.50;56.80
36458;DHT22;22480;50.546;12.292;2023-08-12T11:37:55;35.10;55.00
36458;DHT22;22480;50.546;12.292;2023-08-12T11:40:22;35.20;53.20
36458;DHT22;22480;50.546;12.292;2023-08-12T11:42:49;34.60;49.90
36458;DHT22;22480;50.546;12.292;2023-08-12T11:45:18;33.70;51.00
36458;DHT22;22480;50.546;12.292;2023-08-12T11:47:45;33.00;50.90
36458;DHT22;22480;50.546;12.292;2023-08-12T11:50:13;33.40;52.70
36458;DHT22;22480;50.546;12.292;2023-08-12T11:52:40;33.40;52.60
36458;DHT22;22480;50.546;12.292;2023-08-12T11:55:06;34.60;50.70
36458;DHT22;22480;50.546;12.292;2023-08-12T11:57:33;34.70;49.80
36458;DHT22;22480;50.546;12.292;2023-08-12T12:00:06;35.70;49.00
36458;DHT22;22480;50.546;12.292;2023-08-12T12:05:16;36.20;47.50
36458;DHT22;22480;50.546;12.292;2023-08-12T12:07:42;36.20;47.40
36458;DHT22;22480;50.546;12.292;2023-08-12T12:10:46;36.10;49.30
36458;DHT22;22480;50.546;12.292;2023-08-12T12:13:06;36.40;46.40
36458;DHT22;22480;50.546;12.292;2023-08-12T12:15:41;36.70;48.00
36458;DHT22;22480;50.546;12.292;2023-08-12T12:18:12;37.20;47.60
36458;DHT22;22480;50.546;12.292;2023-08-12T12:20:53;37.80;45.10
36458;DHT22;22480;50.546;12.292;2023-08-12T12:23:19;37.60;46.80
36458;DHT22;22480;50.546;12.292;2023-08-12T12:25:45;38.00;45.50
36458;DHT22;22480;50.546;12.292;2023-08-12T12:28:10;38.50;46.20
36458;DHT22;22480;50.546;12.292;2023-08-12T12:30:36;38.50;44.00
36458;DHT22;22480;50.546;12.292;2023-08-12T12:33:02;37.00;46.30
36458;DHT22;22480;50.546;12.292;2023-08-12T12:35:28;37.00;46.80
36458;DHT22;22480;50.546;12.292;2023-08-12T12:37:53;37.10;45.50
36458;DHT22;22480;50.546;12.292;2023-08-12T12:40:19;37.50;45.60
36458;DHT22;22480;50.546;12.292;2023-08-12T12:42:45;37.80;45.60
36458;DHT22;22480;50.546;12.292;2023-08-12T12:45:10;37.40;45.50
36458;DHT22;22480;50.546;12.292;2023-08-12T12:47:36;36.70;45.90
36458;DHT22;22480;50.546;12.292;2023-08-12T12:50:03;36.80;46.90
36458;DHT22;22480;50.546;12.292;2023-08-12T12:52:29;37.70;46.10
36458;DHT22;22480;50.546;12.292;2023-08-12T12:54:54;38.10;46.20
36458;DHT22;22480;50.546;12.292;2023-08-12T12:57:21;38.50;46.20
36458;DHT22;22480;50.546;12.292;2023-08-12T12:59:47;38.40;45.10
36458;DHT22;22480;50.546;12.292;2023-08-12T13:02:14;36.70;47.00
36458;DHT22;22480;50.546;12.292;2023-08-12T13:04:39;35.60;47.60
36458;DHT22;22480;50.546;12.292;2023-08-12T13:07:05;35.40;47.80
36458;DHT22;22480;50.546;12.292;2023-08-12T13:09:31;34.90;47.40
36458;DHT22;22480;50.546;12.292;2023-08-12T13:11:56;35.00;48.10
36458;DHT22;22480;50.546;12.292;2023-08-12T13:14:23;35.50;46.80
36458;DHT22;22480;50.546;12.292;2023-08-12T13:16:49;35.70;47.50
36458;DHT22;22480;50.546;12.292;2023-08-12T13:19:15;36.60;46.30
36458;DHT22;22480;50.546;12.292;2023-08-12T13:21:41;37.30;46.10
36458;DHT22;22480;50.546;12.292;2023-08-12T13:24:06;38.40;44.50
36458;DHT22;22480;50.546;12.292;2023-08-12T13:26:32;39.00;44.00
36458;DHT22;22480;50.546;12.292;2023-08-12T13:28:58;38.90;44.10
36458;DHT22;22480;50.546;12.292;2023-08-12T13:31:24;39.20;45.40
36458;DHT22;22480;50.546;12.292;2023-08-12T13:33:50;39.10;44.90
36458;DHT22;22480;50.546;12.292;2023-08-12T13:36:16;37.90;44.70
36458;DHT22;22480;50.546;12.292;2023-08-12T13:38:43;37.30;46.30
36458;DHT22;22480;50.546;12.292;2023-08-12T13:41:08;36.20;47.80
36458;DHT22;22480;50.546;12.292;2023-08-12T13:43:34;36.10;47.10
36458;DHT22;22480;50.546;12.292;2023-08-12T13:46:00;35.60;47.90
36458;DHT22;22480;50.546;12.292;2023-08-12T13:48:26;34.80;47.50
36458;DHT22;22480;50.546;12.292;2023-08-12T13:50:53;33.40;49.50
36458;DHT22;22480;50.546;12.292;2023-08-12T13:53:18;32.50;51.40
36458;DHT22;22480;50.546;12.292;2023-08-12T13:55:45;32.00;51.30
36458;DHT22;22480;50.546;12.292;2023-08-12T13:58:11;31.70;52.00
36458;DHT22;22480;50.546;12.292;2023-08-12T14:00:36;31.60;52.70
36458;DHT22;22480;50.546;12.292;2023-08-12T14:03:02;32.30;53.80
36458;DHT22;22480;50.546;12.292;2023-08-12T14:05:28;33.60;52.10
36458;DHT22;22480;50.546;12.292;2023-08-12T14:07:54;34.60;49.60
36458;DHT22;22480;50.546;12.292;2023-08-12T14:10:20;35.00;49.90
36458;DHT22;22480;50.546;12.292;2023-08-12T14:12:46;35.10;49.00
36458;DHT22;22480;50.546;12.292;2023-08-12T14:15:13;36.00;48.80
36458;DHT22;22480;50.546;12.292;2023-08-12T14:17:39;37.00;47.70
36458;DHT22;22480;50.546;12.292;2023-08-12T14:20:06;37.00;47.10
36458;DHT22;22480;50.546;12.292;2023-08-12T14:22:34;36.80;47.50
36458;DHT22;22480;50.546;12.292;2023-08-12T14:25:01;36.10;47.20
36458;DHT22;22480;50.546;12.292;2023-08-12T14:27:27;35.10;48.20
36458;DHT22;22480;50.546;12.292;2023-08-12T14:29:53;34.30;48.90
36458;DHT22;22480;50.546;12.292;2023-08-12T14:32:18;33.70;50.60
36458;DHT22;22480;50.546;12.292;2023-08-12T14:34:44;33.20;51.80
36458;DHT22;22480;50.546;12.292;2023-08-12T14:37:12;32.20;52.70
36458;DHT22;22480;50.546;12.292;2023-08-12T14:39:38;31.30;54.00
36458;DHT22;22480;50.546;12.292;2023-08-12T14:42:04;30.70;55.70
36458;DHT22;22480;50.546;12.292;2023-08-12T14:44:31;30.20;56.20
36458;DHT22;22480;50.546;12.292;2023-08-12T14:47:00;29.90;56.90
36458;DHT22;22480;50.546;12.292;2023-08-12T14:49:26;29.70;57.50
36458;DHT22;22480;50.546;12.292;2023-08-12T14:51:54;29.30;58.50
36458;DHT22;22480;50.546;12.292;2023-08-12T14:54:21;29.00;59.60
36458;DHT22;22480;50.546;12.292;2023-08-12T14:56:46;28.60;62.60
36458;DHT22;22480;50.546;12.292;2023-08-12T14:59:12;24.10;99.90
36458;DHT22;22480;50.546;12.292;2023-08-12T15:01:38;20.60;99.90
36458;DHT22;22480;50.546;12.292;2023-08-12T15:04:04;19.20;99.90
36458;DHT22;22480;50.546;12.292;2023-08-12T15:06:30;18.40;99.90
36458;DHT22;22480;50.546;12.292;2023-08-12T15:08:56;18.00;99.90
36458;DHT22;22480;50.546;12.292;2023-08-12T15:11:22;17.70;99.90
36458;DHT22;22480;50.546;12.292;2023-08-12T15:13:48;17.60;99.90
36458;DHT22;22480;50.546;12.292;2023-08-12T15:16:13;17.50;99.90
36458;DHT22;22480;50.546;12.292;2023-08-12T15:18:39;17.50;99.90
36458;DHT22;22480;50.546;12.292;2023-08-12T15:21:05;17.40;99.90
36458;DHT22;22480;50.546;12.292;2023-08-12T15:23:30;17.40;99.90